Time;durP1;ratioP1;P1;durP2;ratioP2;P2;SDS_P1;SDS_P2;PMS_P1;PMS_P2;Temp;Humidity;BMP_temperature;BMP_pressure;BME280_temperature;BME280_humidity;BME280_pressure;Samples;Min_cycle;Max_cycle;Signal;HPM_P1;HPM_P2
2021/03/29 00:00:08;;;;;;;7.75;2.97;;;13.10;80.90;;;;;;4972299;28;20042;-82
2021/03/29 00:02:34;;;;;;;8.48;2.30;;;13.10;80.90;;;;;;4973887;28;20460;-82
2021/03/29 00:05:01;;;;;;;12.60;3.13;;;13.10;81.20;;;;;;4987084;28;20035;-81
2021/03/29 00:07:29;;;;;;;12.32;2.60;;;13.10;81.20;;;;;;4972243;28;20051;-82
2021/03/29 00:09:55;;;;;;;;;;;13.10;81.10;;;;;;4972907;28;20095;-81
2021/03/29 00:12:22;;;;;;;12.27;2.92;;;13.10;81.10;;;;;;4971480;28;20017;-81
2021/03/29 00:14:49;;;;;;;12.07;2.50;;;13.10;81.10;;;;;;4987111;28;20056;-80
2021/03/29 00:17:15;;;;;;;12.40;3.22;;;13.10;81.30;;;;;;4973229;28;20054;-80
2021/03/29 00:19:42;;;;;;;13.27;3.05;;;13.10;81.20;;;;;;4986590;28;20428;-81
2021/03/29 00:22:08;;;;;;;13.88;3.20;;;13.10;81.30;;;;;;4971796;28;20035;-80
2021/03/29 00:24:35;;;;;;;10.52;2.90;;;13.10;81.40;;;;;;4986798;28;20031;-80
2021/03/29 00:27:02;;;;;;;11.68;2.40;;;13.00;81.40;;;;;;4971731;28;20034;-81
2021/03/29 00:29:27;;;;;;;9.20;2.63;;;13.00;81.50;;;;;;4988129;28;20035;-81
2021/03/29 00:31:53;;;;;;;10.38;3.40;;;13.00;81.50;;;;;;4986720;28;20093;-81
2021/03/29 00:34:19;;;;;;;12.20;3.50;;;13.00;81.50;;;;;;4971528;28;20349;-81
2021/03/29 00:36:47;;;;;;;12.93;3.17;;;13.00;81.60;;;;;;4971489;28;20420;-81
2021/03/29 00:39:14;;;;;;;13.85;3.20;;;13.00;81.70;;;;;;4971616;28;20062;-82
2021/03/29 00:41:41;;;;;;;12.18;3.00;;;13.00;81.70;;;;;;4987123;28;20023;-80
2021/03/29 00:44:08;;;;;;;15.02;3.40;;;12.90;81.50;;;;;;4973563;28;20034;-80
2021/03/29 00:46:37;;;;;;;8.57;2.67;;;12.90;81.70;;;;;;4971731;28;20456;-81
2021/03/29 00:49:03;;;;;;;12.77;2.95;;;12.90;81.80;;;;;;4986132;28;20413;-80
2021/03/29 00:51:32;;;;;;;15.07;3.10;;;12.90;81.80;;;;;;4971188;28;20038;-80
2021/03/29 00:54:00;;;;;;;13.40;3.50;;;12.90;81.90;;;;;;4986054;28;20035;-80
2021/03/29 00:56:28;;;;;;;12.73;3.08;;;12.90;82.00;;;;;;4987892;28;20125;-80
2021/03/29 00:58:57;;;;;;;7.07;2.92;;;13.00;82.00;;;;;;4971067;28;20046;-81
2021/03/29 01:01:24;;;;;;;;;;;12.90;82.00;;;;;;4971734;28;20039;-81
2021/03/29 01:03:52;;;;;;;17.40;3.92;;;12.90;82.10;;;;;;4986227;28;19918;-80
2021/03/29 01:06:20;;;;;;;12.60;3.25;;;12.90;82.00;;;;;;4986144;28;20039;-80
2021/03/29 01:08:49;;;;;;;9.50;3.15;;;12.90;81.90;;;;;;4970925;28;20030;-81
2021/03/29 01:11:17;;;;;;;8.95;3.15;;;13.00;82.20;;;;;;4987856;28;20045;-81
2021/03/29 01:13:48;;;;;;;12.07;3.70;;;13.00;82.10;;;;;;4985778;28;20214;-82
2021/03/29 01:16:17;;;;;;;16.55;3.33;;;13.00;81.90;;;;;;4971157;28;20739;-82
2021/03/29 01:18:46;;;;;;;13.07;3.83;;;13.00;82.00;;;;;;4971127;28;20038;-82
2021/03/29 01:21:24;;;;;;;16.27;3.60;;;13.00;82.10;;;;;;4970843;28;20035;-81
2021/03/29 01:23:52;;;;;;;;;;;12.90;82.10;;;;;;4970071;28;20074;-81
2021/03/29 01:26:36;;;;;;;13.60;4.40;;;13.00;82.30;;;;;;4972643;28;19923;-81
2021/03/29 01:29:02;;;;;;;13.32;3.22;;;13.00;82.20;;;;;;4969356;28;20035;-80
2021/03/29 01:31:28;;;;;;;16.42;3.92;;;13.00;82.30;;;;;;4986231;28;20039;-81
2021/03/29 01:33:56;;;;;;;12.18;3.65;;;12.90;82.20;;;;;;4971032;28;20117;-81
2021/03/29 01:36:23;;;;;;;16.85;3.72;;;13.00;82.50;;;;;;5002037;28;20085;-81
2021/03/29 01:38:50;;;;;;;19.85;4.15;;;13.00;82.30;;;;;;5009704;28;20104;-82
2021/03/29 01:41:17;;;;;;;13.98;4.30;;;13.00;82.40;;;;;;5010124;28;20253;-81
2021/03/29 01:43:45;;;;;;;14.35;3.90;;;13.00;82.40;;;;;;5009333;28;20045;-82
2021/03/29 01:46:13;;;;;;;13.35;2.97;;;13.10;82.60;;;;;;5008067;28;20396;-82
2021/03/29 01:48:40;;;;;;;15.68;3.88;;;13.10;82.50;;;;;;5009292;28;20034;-81
2021/03/29 01:51:06;;;;;;;19.13;4.07;;;13.00;82.50;;;;;;5009473;28;20030;-81
2021/03/29 01:53:33;;;;;;;19.33;3.97;;;13.00;82.60;;;;;;5011368;28;20053;-81
2021/03/29 01:55:59;;;;;;;19.65;3.92;;;13.00;82.60;;;;;;5009651;28;20126;-82
2021/03/29 01:58:25;;;;;;;14.40;3.33;;;13.00;82.70;;;;;;5009293;28;20120;-82
2021/03/29 02:00:56;;;;;;;13.73;3.95;;;13.00;82.70;;;;;;5009065;28;20088;-81
2021/03/29 02:03:22;;;;;;;18.63;4.45;;;13.00;82.60;;;;;;5008171;28;20387;-82
2021/03/29 02:05:48;;;;;;;15.63;4.20;;;13.00;82.80;;;;;;5009403;28;20033;-82
2021/03/29 02:08:16;;;;;;;19.90;4.03;;;13.00;82.60;;;;;;5011352;28;20022;-82
2021/03/29 02:10:41;;;;;;;17.52;4.00;;;13.00;82.60;;;;;;5008249;28;20069;-82
2021/03/29 02:13:15;;;;;;;17.00;4.07;;;13.00;82.70;;;;;;5009294;28;20418;-83
2021/03/29 02:15:43;;;;;;;15.95;4.20;;;13.00;82.70;;;;;;5008788;28;20053;-81
2021/03/29 02:18:31;;;;;;;12.88;4.35;;;12.90;82.80;;;;;;5009255;28;20070;-80
2021/03/29 02:21:03;;;;;;;16.92;4.10;;;12.90;82.80;;;;;;5007967;28;20038;-81
2021/03/29 02:23:30;;;;;;;18.33;4.95;;;12.90;82.90;;;;;;5009833;28;20375;-81
2021/03/29 02:25:56;;;;;;;16.77;4.18;;;13.00;83.10;;;;;;5008678;28;20030;-80
2021/03/29 02:28:22;;;;;;;17.58;4.38;;;12.90;83.00;;;;;;5008069;28;20065;-82
2021/03/29 02:30:48;;;;;;;12.68;4.18;;;12.90;83.00;;;;;;5007831;28;20046;-81
2021/03/29 02:33:16;;;;;;;15.45;5.38;;;12.90;82.90;;;;;;5007567;28;20463;-81
2021/03/29 02:35:44;;;;;;;16.88;5.00;;;12.90;83.20;;;;;;5011749;28;20029;-81
2021/03/29 02:38:15;;;;;;;22.83;4.75;;;12.90;83.30;;;;;;5013314;28;20036;-81
2021/03/29 02:40:42;;;;;;;17.40;3.67;;;12.80;83.20;;;;;;5011311;28;20341;-81
2021/03/29 02:43:10;;;;;;;15.63;3.83;;;12.80;83.20;;;;;;5011574;28;20419;-81
2021/03/29 02:45:40;;;;;;;11.35;4.35;;;12.80;83.30;;;;;;5012847;28;20026;-80
2021/03/29 02:48:08;;;;;;;19.92;4.28;;;12.80;83.20;;;;;;5011945;28;20041;-80
2021/03/29 02:50:38;;;;;;;14.73;4.30;;;12.80;83.20;;;;;;5013364;28;20422;-81
2021/03/29 02:53:08;;;;;;;14.05;3.92;;;12.70;83.00;;;;;;5011309;28;20038;-79
2021/03/29 02:55:36;;;;;;;19.90;4.57;;;12.70;83.10;;;;;;5013961;28;20038;-80
2021/03/29 02:58:04;;;;;;;19.55;4.60;;;12.70;83.00;;;;;;5012525;28;20061;-82
2021/03/29 03:00:32;;;;;;;12.37;4.00;;;12.70;82.90;;;;;;5012358;28;20136;-82
2021/03/29 03:03:00;;;;;;;18.48;4.57;;;12.70;82.90;;;;;;5011041;28;20026;-82
2021/03/29 03:05:29;;;;;;;14.00;3.78;;;12.70;82.80;;;;;;5014454;28;20057;-80
2021/03/29 03:07:55;;;;;;;18.48;3.92;;;12.60;82.50;;;;;;5012403;28;20038;-81
2021/03/29 03:10:21;;;;;;;18.40;3.80;;;12.60;82.60;;;;;;5011199;28;20030;-81
2021/03/29 03:12:49;;;;;;;21.65;3.60;;;12.60;82.60;;;;;;5011266;28;20057;-81
2021/03/29 03:15:21;;;;;;;17.53;3.43;;;12.60;82.40;;;;;;5010970;28;20041;-81
2021/03/29 03:17:48;;;;;;;14.15;2.97;;;12.60;82.40;;;;;;5011438;28;20788;-80
2021/03/29 03:20:16;;;;;;;16.95;3.53;;;12.60;82.20;;;;;;5013497;28;20033;-80
2021/03/29 03:22:59;;;;;;;10.13;3.53;;;12.60;82.20;;;;;;5011798;28;20034;-82
2021/03/29 03:25:31;;;;;;;12.45;2.92;;;12.60;82.30;;;;;;5011723;28;20057;-80
2021/03/29 03:28:00;;;;;;;14.68;3.30;;;12.50;82.00;;;;;;5011888;28;20034;-80
2021/03/29 03:30:32;;;;;;;13.35;3.10;;;12.50;82.00;;;;;;5010874;28;20022;-81
2021/03/29 03:32:58;;;;;;;13.98;3.25;;;12.60;82.00;;;;;;5011125;28;20097;-81
2021/03/29 03:35:26;;;;;;;12.80;3.78;;;12.60;82.00;;;;;;5013572;28;20463;-80
2021/03/29 03:38:02;;;;;;;11.98;3.30;;;12.50;81.70;;;;;;5010775;28;20046;-80
2021/03/29 03:40:29;;;;;;;14.30;3.55;;;12.60;81.80;;;;;;5011761;28;20045;-81
2021/03/29 03:42:59;;;;;;;14.40;3.70;;;12.60;81.60;;;;;;5010320;28;20121;-80
2021/03/29 03:45:28;;;;;;;13.18;2.78;;;12.60;81.70;;;;;;5010987;28;20041;-80
2021/03/29 03:47:56;;;;;;;11.43;2.72;;;12.50;81.60;;;;;;5009970;28;20034;-82
2021/03/29 03:50:24;;;;;;;16.57;3.50;;;12.50;81.60;;;;;;5013359;28;20029;-81
2021/03/29 03:52:50;;;;;;;16.13;3.60;;;12.60;81.50;;;;;;5011897;28;20628;-81
2021/03/29 03:55:18;;;;;;;18.30;4.22;;;12.60;81.20;;;;;;5011591;28;20096;-80
2021/03/29 03:57:44;;;;;;;19.48;3.05;;;12.50;81.10;;;;;;5010232;28;20471;-81
2021/03/29 04:00:13;;;;;;;10.00;2.45;;;12.50;81.10;;;;;;5011100;28;20092;-82
2021/03/29 04:02:40;;;;;;;11.60;2.85;;;12.50;81.20;;;;;;5012683;28;20042;-82
2021/03/29 04:05:12;;;;;;;13.82;3.58;;;12.50;81.10;;;;;;5011514;28;20080;-81
2021/03/29 04:07:39;;;;;;;11.73;3.00;;;12.50;81.20;;;;;;5009929;28;20354;-81
2021/03/29 04:10:14;;;;;;;12.35;3.35;;;12.50;81.10;;;;;;5011334;28;20125;-80
2021/03/29 04:12:40;;;;;;;15.15;2.70;;;12.50;81.20;;;;;;5009499;28;20048;-81
2021/03/29 04:15:06;;;;;;;12.02;2.58;;;12.40;81.00;;;;;;5011093;28;20464;-82
2021/03/29 04:17:32;;;;;;;11.20;2.63;;;12.40;80.90;;;;;;5012308;28;20062;-81
2021/03/29 04:19:57;;;;;;;18.40;3.33;;;12.40;81.00;;;;;;5010536;28;20034;-81
2021/03/29 04:22:24;;;;;;;9.48;2.47;;;12.40;81.00;;;;;;5010894;28;20042;-84
2021/03/29 04:24:50;;;;;;;10.30;2.35;;;12.40;81.00;;;;;;5010665;28;20030;-83
2021/03/29 04:27:15;;;;;;;9.85;2.67;;;12.40;80.90;;;;;;5009505;28;20038;-80
2021/03/29 04:29:41;;;;;;;11.93;2.67;;;12.40;80.90;;;;;;5010667;28;20037;-81
2021/03/29 04:32:08;;;;;;;18.27;2.95;;;12.40;81.00;;;;;;5011212;28;20018;-80
2021/03/29 04:34:34;;;;;;;11.27;3.03;;;12.40;80.90;;;;;;5009334;28;20133;-79
2021/03/29 04:37:00;;;;;;;15.93;2.97;;;12.50;81.10;;;;;;5010455;28;20096;-80
2021/03/29 04:39:25;;;;;;;12.63;2.97;;;12.40;80.90;;;;;;5010260;28;20038;-80
2021/03/29 04:41:51;;;;;;;11.40;2.97;;;12.40;80.90;;;;;;5009353;28;20040;-81
2021/03/29 04:44:17;;;;;;;21.58;3.17;;;12.40;80.70;;;;;;5011759;28;20030;-81
2021/03/29 04:46:43;;;;;;;16.27;2.05;;;12.40;80.50;;;;;;5010469;28;20034;-81
2021/03/29 04:49:09;;;;;;;15.82;2.78;;;12.40;80.60;;;;;;5010027;28;20034;-80
2021/03/29 04:51:34;;;;;;;12.02;2.70;;;12.50;80.50;;;;;;5010374;28;20034;-80
2021/03/29 04:54:00;;;;;;;14.90;2.20;;;12.50;80.50;;;;;;5010319;28;20030;-80
2021/03/29 04:56:25;;;;;;;17.00;2.70;;;12.50;80.40;;;;;;5010741;28;20118;-80
2021/03/29 04:58:51;;;;;;;10.82;2.90;;;12.60;80.50;;;;;;5009939;28;20030;-80
2021/03/29 05:01:17;;;;;;;7.68;2.47;;;12.50;80.30;;;;;;5010127;28;20105;-80
2021/03/29 05:03:42;;;;;;;14.02;2.63;;;12.60;80.30;;;;;;5008982;28;20042;-80
2021/03/29 05:06:08;;;;;;;10.20;2.22;;;12.60;80.20;;;;;;5009984;28;20034;-80
2021/03/29 05:08:33;;;;;;;13.57;3.05;;;12.60;80.00;;;;;;5011783;28;20113;-80
2021/03/29 05:10:59;;;;;;;10.50;2.47;;;12.60;80.10;;;;;;5008782;28;20042;-81
2021/03/29 05:13:25;;;;;;;13.63;2.97;;;12.60;79.90;;;;;;5010132;28;20026;-79
2021/03/29 05:15:50;;;;;;;16.05;2.72;;;12.70;80.00;;;;;;5009873;28;20046;-79
2021/03/29 05:18:16;;;;;;;13.93;3.25;;;12.70;79.60;;;;;;5009207;28;20030;-80
2021/03/29 05:20:41;;;;;;;10.02;2.40;;;12.80;79.60;;;;;;5008479;28;20041;-82
2021/03/29 05:23:08;;;;;;;13.45;2.67;;;12.80;79.50;;;;;;5010160;28;20029;-80
2021/03/29 05:25:34;;;;;;;16.33;2.78;;;12.80;79.30;;;;;;5009747;28;20320;-81
2021/03/29 05:27:59;;;;;;;11.60;2.55;;;12.80;79.10;;;;;;5006477;28;20046;-79
2021/03/29 05:30:25;;;;;;;18.98;3.47;;;12.90;79.00;;;;;;5005641;28;20381;-79
2021/03/29 05:32:50;;;;;;;9.52;2.63;;;12.90;79.10;;;;;;5005451;28;20463;-78
2021/03/29 05:35:16;;;;;;;11.82;2.47;;;12.90;79.00;;;;;;4991502;28;20160;-77
2021/03/29 05:37:42;;;;;;;11.02;2.47;;;12.90;78.90;;;;;;4988978;28;20038;-79
2021/03/29 05:40:08;;;;;;;11.95;2.70;;;13.00;78.80;;;;;;4990769;28;20042;-80
2021/03/29 05:42:34;;;;;;;13.68;2.58;;;13.10;79.70;;;;;;4990948;28;20035;-83
2021/03/29 05:45:06;;;;;;;14.93;2.47;;;13.10;78.30;;;;;;5007872;28;20181;-86
2021/03/29 05:47:33;;;;;;;12.50;2.40;;;13.10;78.30;;;;;;4992529;28;20029;-83
2021/03/29 05:50:02;;;;;;;18.50;2.67;;;13.10;78.30;;;;;;4990002;28;20030;-83
2021/03/29 05:52:30;;;;;;;14.68;3.50;;;13.20;78.40;;;;;;4990189;28;20092;-85
2021/03/29 05:54:57;;;;;;;15.18;3.03;;;13.20;78.20;;;;;;4990285;28;20041;-87
2021/03/29 05:57:24;;;;;;;10.82;3.38;;;13.20;78.20;;;;;;4991787;28;20073;-88
2021/03/29 05:59:49;;;;;;;15.70;2.50;;;13.20;78.00;;;;;;4991856;28;20042;-89
2021/03/29 06:02:32;;;;;;;15.55;2.83;;;13.20;77.80;;;;;;5009871;28;20106;-92
2021/03/29 06:04:58;;;;;;;13.02;2.80;;;13.30;77.70;;;;;;4994200;28;20039;-89
2021/03/29 06:07:29;;;;;;;8.85;2.63;;;13.30;77.80;;;;;;4994591;28;20130;-93
2021/03/29 06:10:10;;;;;;;12.05;2.50;;;13.30;77.80;;;;;;5000582;28;20044;-88
2021/03/29 06:12:46;;;;;;;12.85;2.22;;;13.40;77.70;;;;;;5017476;28;20030;-88
2021/03/29 06:15:13;;;;;;;15.38;2.35;;;13.40;77.80;;;;;;5000730;28;20088;-83
2021/03/29 06:17:39;;;;;;;12.30;2.47;;;13.40;77.50;;;;;;4999339;28;20109;-87
2021/03/29 06:20:07;;;;;;;14.77;2.95;;;13.50;77.70;;;;;;4999697;28;20137;-89
2021/03/29 06:22:37;;;;;;;11.25;2.33;;;13.50;77.70;;;;;;4997249;28;20130;-83
2021/03/29 06:25:22;;;;;;;17.73;3.10;;;13.50;77.70;;;;;;4996624;28;20491;-84
2021/03/29 06:27:56;;;;;;;14.77;2.58;;;13.50;77.80;;;;;;4998199;28;20034;-87
2021/03/29 06:30:27;;;;;;;11.00;2.10;;;13.50;77.70;;;;;;4995382;28;20054;-85
2021/03/29 06:33:14;;;;;;;8.98;2.42;;;13.60;77.80;;;;;;4994954;28;20038;-87
2021/03/29 06:35:45;;;;;;;7.63;2.00;;;13.60;77.70;;;;;;4996717;28;20023;-84
2021/03/29 06:38:18;;;;;;;15.88;2.40;;;13.70;77.70;;;;;;4997557;28;20023;-85
2021/03/29 06:40:53;;;;;;;11.10;2.83;;;13.70;77.60;;;;;;4996418;28;20038;-87
2021/03/29 06:43:27;;;;;;;9.55;2.45;;;13.80;77.60;;;;;;5001134;28;20462;-83
2021/03/29 06:45:58;;;;;;;10.90;2.22;;;13.80;77.60;;;;;;4998100;28;20022;-86
2021/03/29 06:48:27;;;;;;;10.15;2.53;;;13.80;77.60;;;;;;4999403;28;20026;-84
2021/03/29 06:51:32;;;;;;;14.88;3.58;;;13.90;77.30;;;;;;4997381;28;20038;-84
2021/03/29 06:54:01;;;;;;;13.30;2.10;;;14.00;77.50;;;;;;4991131;28;20191;-85
2021/03/29 06:56:35;;;;;;;11.32;2.58;;;14.00;77.30;;;;;;4996305;28;20368;-84
2021/03/29 06:59:16;;;;;;;16.20;3.40;;;14.10;77.30;;;;;;4993806;28;20064;-84
2021/03/29 07:01:51;;;;;;;11.35;2.22;;;14.20;77.00;;;;;;4993601;28;20041;-84
2021/03/29 07:04:25;;;;;;;12.00;3.15;;;14.20;77.00;;;;;;4996351;28;20143;-84
2021/03/29 07:06:58;;;;;;;16.42;2.67;;;14.30;77.10;;;;;;4994663;28;20054;-87
2021/03/29 07:09:23;;;;;;;19.42;3.28;;;14.50;77.10;;;;;;4996939;28;20623;-86
2021/03/29 07:11:49;;;;;;;7.40;2.47;;;14.50;76.60;;;;;;4997443;28;20053;-85
2021/03/29 07:14:20;;;;;;;8.05;2.05;;;14.60;76.60;;;;;;4996940;28;20595;-88
2021/03/29 07:16:46;;;;;;;8.73;2.40;;;14.40;76.50;;;;;;5009482;28;20112;-82
2021/03/29 07:19:12;;;;;;;11.13;2.80;;;14.50;76.80;;;;;;4992720;28;20049;-81
2021/03/29 07:21:38;;;;;;;9.95;2.80;;;14.50;76.50;;;;;;4993825;28;20043;-86
2021/03/29 07:24:06;;;;;;;13.00;2.90;;;14.60;77.30;;;;;;4995139;28;20046;-88
2021/03/29 07:26:52;;;;;;;18.80;3.63;;;14.60;76.70;;;;;;5012441;28;20062;-86
2021/03/29 07:29:37;;;;;;;13.20;2.83;;;14.70;76.60;;;;;;4995048;28;20085;-86
2021/03/29 07:32:28;;;;;;;13.15;3.42;;;14.70;76.20;;;;;;4992444;28;20042;-87
2021/03/29 07:34:54;;;;;;;13.25;2.95;;;14.80;76.30;;;;;;4993659;28;20040;-84
2021/03/29 07:37:37;;;;;;;14.32;2.40;;;14.80;75.70;;;;;;4992134;28;20124;-83
2021/03/29 07:40:18;;;;;;;18.20;2.53;;;14.90;75.80;;;;;;4992850;28;20479;-89
2021/03/29 07:42:50;;;;;;;9.68;2.85;;;15.00;75.40;;;;;;4994508;28;20046;-87
2021/03/29 07:45:18;;;;;;;13.65;2.80;;;14.90;75.70;;;;;;4992950;28;20034;-85
2021/03/29 07:47:44;;;;;;;;;;;15.00;75.50;;;;;;4992746;28;20033;-85
2021/03/29 07:50:26;;;;;;;9.80;2.08;;;14.90;75.10;;;;;;4995626;28;20008;-84
2021/03/29 07:52:56;;;;;;;15.73;2.50;;;14.90;75.20;;;;;;4993586;28;20039;-88
2021/03/29 07:56:01;;;;;;;14.82;2.85;;;14.90;75.30;;;;;;4993680;28;20043;-85
2021/03/29 07:58:27;;;;;;;15.43;2.78;;;15.00;75.20;;;;;;4975309;28;20061;-85
2021/03/29 08:01:05;;;;;;;9.30;2.40;;;15.00;75.30;;;;;;4993346;28;20053;-86
2021/03/29 08:03:31;;;;;;;9.68;2.65;;;14.90;75.10;;;;;;4992287;28;20030;-86
2021/03/29 08:05:56;;;;;;;14.15;2.80;;;15.00;74.90;;;;;;4993195;28;20030;-85
2021/03/29 08:08:25;;;;;;;8.25;1.70;;;14.80;74.50;;;;;;4993927;28;20456;-85
2021/03/29 08:11:12;;;;;;;10.52;2.25;;;14.90;74.60;;;;;;4992742;28;20057;-84
2021/03/29 08:13:43;;;;;;;13.63;2.90;;;15.00;74.50;;;;;;4992589;28;20499;-84
2021/03/29 08:16:11;;;;;;;12.25;2.72;;;15.00;74.30;;;;;;4992048;28;20050;-85
2021/03/29 08:19:11;;;;;;;16.15;2.40;;;15.10;74.40;;;;;;4991117;28;20121;-84
2021/03/29 08:21:53;;;;;;;17.13;3.30;;;15.10;73.80;;;;;;4991949;28;20034;-83
2021/03/29 08:24:27;;;;;;;9.93;2.20;;;15.20;73.90;;;;;;4992738;28;20048;-86
2021/03/29 08:26:55;;;;;;;12.60;2.13;;;15.40;73.90;;;;;;4991878;28;20027;-85
2021/03/29 08:29:31;;;;;;;12.23;2.90;;;15.40;72.60;;;;;;4994252;28;20443;-85
2021/03/29 08:32:16;;;;;;;10.43;2.20;;;15.60;72.30;;;;;;4991994;28;20460;-87
2021/03/29 08:34:43;;;;;;;8.80;2.42;;;16.00;71.90;;;;;;4991930;28;20200;-86
2021/03/29 08:37:11;;;;;;;8.18;1.90;;;16.90;71.30;;;;;;4991975;28;20106;-83
2021/03/29 08:39:39;;;;;;;7.97;2.28;;;17.60;69.70;;;;;;4991764;28;20054;-84
2021/03/29 08:42:06;;;;;;;13.73;2.30;;;18.20;65.40;;;;;;4991477;28;20092;-84
2021/03/29 08:44:35;;;;;;;12.85;2.78;;;19.10;65.40;;;;;;4992773;28;20030;-83
2021/03/29 08:47:05;;;;;;;17.30;2.58;;;19.60;61.80;;;;;;4992827;28;20039;-86
2021/03/29 08:49:31;;;;;;;10.27;2.78;;;20.10;61.20;;;;;;4993674;28;20050;-82
2021/03/29 08:51:57;;;;;;;8.95;2.70;;;20.50;58.50;;;;;;4991134;28;20062;-82
2021/03/29 08:54:23;;;;;;;7.88;2.00;;;20.60;56.30;;;;;;4990677;28;20432;-87
2021/03/29 08:56:51;;;;;;;22.85;10.65;;;21.20;56.10;;;;;;4991399;28;20084;-85
2021/03/29 08:59:17;;;;;;;16.33;3.25;;;21.70;54.60;;;;;;4992298;28;20105;-81
2021/03/29 09:01:43;;;;;;;9.60;2.45;;;22.80;53.80;;;;;;4990445;28;20460;-81
2021/03/29 09:04:10;;;;;;;8.05;2.25;;;23.10;53.30;;;;;;4989551;28;20046;-81
2021/03/29 09:06:36;;;;;;;8.00;2.25;;;23.60;49.40;;;;;;4990651;28;20125;-79
2021/03/29 09:09:16;;;;;;;11.95;2.80;;;23.00;47.80;;;;;;4991338;28;20049;-88
2021/03/29 09:11:44;;;;;;;8.60;2.20;;;24.00;46.40;;;;;;4993620;28;20029;-89
2021/03/29 09:14:11;;;;;;;8.23;2.25;;;25.00;45.20;;;;;;4994551;28;20014;-88
2021/03/29 09:16:38;;;;;;;10.82;3.03;;;25.90;43.10;;;;;;4990657;28;20053;-81
2021/03/29 09:19:33;;;;;;;7.65;2.00;;;25.20;41.60;;;;;;4991072;28;20061;-84
2021/03/29 09:22:02;;;;;;;7.72;2.05;;;25.00;41.90;;;;;;4990495;28;20030;-84
2021/03/29 09:24:29;;;;;;;12.32;2.40;;;26.20;40.60;;;;;;4990342;28;20046;-85
2021/03/29 09:26:58;;;;;;;10.45;2.67;;;26.00;38.70;;;;;;4991699;28;20030;-84
2021/03/29 09:29:38;;;;;;;8.00;2.38;;;26.20;39.10;;;;;;4993300;28;20089;-84
2021/03/29 09:32:16;;;;;;;10.68;2.50;;;26.30;38.10;;;;;;4991662;28;20059;-84
2021/03/29 09:34:46;;;;;;;9.88;2.65;;;26.20;38.70;;;;;;4990847;28;20042;-82
2021/03/29 09:37:27;;;;;;;9.55;2.50;;;26.80;38.00;;;;;;4989417;28;20114;-82
2021/03/29 09:40:05;;;;;;;10.00;2.10;;;27.50;37.00;;;;;;4989723;28;20027;-83
2021/03/29 09:42:53;;;;;;;12.20;2.30;;;28.20;35.50;;;;;;5006476;28;20060;-83
2021/03/29 09:45:36;;;;;;;8.43;2.17;;;28.00;35.30;;;;;;4994189;28;20038;-83
2021/03/29 09:48:07;;;;;;;14.77;2.70;;;26.60;34.70;;;;;;5010633;28;20403;-89
2021/03/29 09:50:44;;;;;;;9.77;2.25;;;27.40;35.10;;;;;;4996488;28;20530;-83
2021/03/29 09:53:20;;;;;;;9.38;2.33;;;28.40;33.80;;;;;;4995513;28;20077;-84
2021/03/29 09:55:48;;;;;;;12.00;2.40;;;28.50;33.60;;;;;;4995124;28;20047;-83
2021/03/29 09:58:28;;;;;;;9.98;2.22;;;27.60;32.50;;;;;;4993611;28;20088;-85
2021/03/29 10:01:00;;;;;;;6.05;2.20;;;28.30;33.70;;;;;;4995059;28;20034;-87
2021/03/29 10:03:26;;;;;;;8.55;2.33;;;27.60;33.20;;;;;;4993116;28;20046;-83
2021/03/29 10:05:52;;;;;;;9.38;2.60;;;27.10;33.60;;;;;;4993938;28;20515;-83
2021/03/29 10:08:34;;;;;;;9.00;2.17;;;27.10;33.10;;;;;;4996040;28;20049;-79
2021/03/29 10:11:03;;;;;;;7.88;2.30;;;27.90;33.00;;;;;;4994188;28;20478;-82
2021/03/29 10:13:47;;;;;;;10.07;2.15;;;28.30;31.50;;;;;;4994634;28;20030;-84
2021/03/29 10:16:29;;;;;;;8.52;2.63;;;27.60;32.60;;;;;;4994280;28;20051;-84
2021/03/29 10:19:09;;;;;;;7.20;2.08;;;28.30;31.70;;;;;;4994188;28;20031;-83
2021/03/29 10:21:59;;;;;;;12.32;2.80;;;28.10;30.80;;;;;;4994563;28;20044;-83
2021/03/29 10:24:24;;;;;;;7.75;1.95;;;29.10;30.20;;;;;;4994201;28;20383;-82
2021/03/29 10:26:55;;;;;;;7.35;2.47;;;28.30;30.00;;;;;;4994120;28;20038;-81
2021/03/29 10:29:38;;;;;;;4.72;2.05;;;28.60;30.00;;;;;;4996182;28;20182;-89
2021/03/29 10:32:12;;;;;;;10.70;2.33;;;28.50;29.50;;;;;;4994581;28;20178;-86
2021/03/29 10:34:39;;;;;;;9.35;2.22;;;28.60;29.80;;;;;;4994698;28;20493;-81
2021/03/29 10:37:26;;;;;;;6.55;2.22;;;28.70;30.00;;;;;;4993111;28;20104;-80
2021/03/29 10:39:54;;;;;;;12.40;2.72;;;29.10;29.40;;;;;;4991586;28;20038;-83
2021/03/29 10:42:22;;;;;;;11.70;4.60;;;27.90;29.90;;;;;;4991969;28;20042;-83
2021/03/29 10:44:48;;;;;;;11.38;3.88;;;27.90;31.40;;;;;;4992021;28;20027;-85
2021/03/29 10:47:14;;;;;;;14.07;6.68;;;28.20;30.00;;;;;;4994898;28;20022;-89
2021/03/29 10:49:40;;;;;;;11.10;3.60;;;29.40;30.00;;;;;;5009131;28;20046;-85
2021/03/29 10:52:07;;;;;;;9.68;2.58;;;29.40;29.80;;;;;;4993985;28;20046;-83
2021/03/29 10:54:33;;;;;;;13.13;2.87;;;28.70;29.00;;;;;;5008152;28;20038;-82
2021/03/29 10:56:59;;;;;;;9.52;2.67;;;29.20;29.70;;;;;;4992410;28;20034;-82
2021/03/29 10:59:24;;;;;;;9.27;2.30;;;28.40;29.80;;;;;;4993351;28;20031;-79
2021/03/29 11:01:50;;;;;;;12.85;2.65;;;28.20;30.00;;;;;;4992797;28;20034;-82
2021/03/29 11:04:16;;;;;;;7.30;2.30;;;29.00;30.00;;;;;;4991792;28;20479;-81
2021/03/29 11:06:42;;;;;;;7.70;2.50;;;27.60;30.20;;;;;;4992390;28;20030;-81
2021/03/29 11:09:07;;;;;;;7.85;2.58;;;27.60;30.60;;;;;;4992235;28;20095;-79
2021/03/29 11:11:33;;;;;;;7.75;2.67;;;27.70;30.70;;;;;;4993871;28;20189;-79
2021/03/29 11:13:59;;;;;;;12.48;3.25;;;29.10;30.30;;;;;;4991269;28;20046;-79
2021/03/29 11:16:26;;;;;;;8.18;2.30;;;29.40;29.50;;;;;;4992422;28;20065;-82
2021/03/29 11:18:52;;;;;;;8.05;2.65;;;29.30;29.40;;;;;;4992445;28;20034;-81
2021/03/29 11:21:18;;;;;;;8.50;2.80;;;29.50;29.50;;;;;;4992198;28;20541;-81
2021/03/29 11:23:44;;;;;;;12.60;2.50;;;29.30;29.40;;;;;;4992549;28;20058;-79
2021/03/29 11:26:10;;;;;;;6.35;2.20;;;28.60;30.10;;;;;;5009192;28;20101;-81
2021/03/29 11:28:36;;;;;;;9.77;2.53;;;29.40;29.50;;;;;;4992242;28;20042;-79
2021/03/29 11:31:02;;;;;;;13.50;2.90;;;28.70;29.60;;;;;;4991886;28;20070;-79
2021/03/29 11:33:28;;;;;;;10.35;2.30;;;28.00;30.30;;;;;;4991227;28;20325;-80
2021/03/29 11:35:54;;;;;;;7.28;2.50;;;28.10;30.60;;;;;;4991469;28;20408;-79
2021/03/29 11:38:19;;;;;;;18.58;3.33;;;27.70;31.10;;;;;;4993713;28;20027;-79
2021/03/29 11:40:45;;;;;;;6.90;2.38;;;27.40;31.40;;;;;;4991919;28;20088;-83
2021/03/29 11:43:11;;;;;;;9.23;2.63;;;26.90;31.50;;;;;;4992334;28;20066;-82
2021/03/29 11:45:37;;;;;;;11.30;2.30;;;26.80;32.30;;;;;;4991532;28;20038;-82
2021/03/29 11:48:03;;;;;;;10.07;2.67;;;26.60;32.90;;;;;;4992627;28;20045;-79
2021/03/29 11:50:29;;;;;;;9.05;2.05;;;25.90;33.80;;;;;;4993383;28;20041;-78
2021/03/29 11:52:54;;;;;;;10.88;2.47;;;24.90;35.40;;;;;;4991855;28;20113;-80
2021/03/29 11:55:20;;;;;;;13.27;2.50;;;24.10;36.50;;;;;;4991701;28;20052;-80
2021/03/29 11:57:46;;;;;;;9.82;2.83;;;24.20;37.20;;;;;;4991535;28;20081;-80
2021/03/29 12:00:21;;;;;;;6.70;2.20;;;24.00;37.00;;;;;;4991787;28;20038;-81
2021/03/29 12:02:56;;;;;;;7.32;2.53;;;23.80;37.30;;;;;;4996194;28;20019;-88
2021/03/29 12:05:29;;;;;;;7.68;2.45;;;23.80;37.30;;;;;;4994476;28;20046;-86
2021/03/29 12:13:27;;;;;;;13.25;2.38;;;23.00;38.90;;;;;;4994570;28;20093;-87
2021/03/29 12:15:54;;;;;;;16.48;3.50;;;23.10;39.10;;;;;;4994737;28;20468;-87
2021/03/29 12:18:31;;;;;;;10.98;3.10;;;22.90;39.30;;;;;;4994747;28;20022;-86
2021/03/29 12:20:57;;;;;;;11.93;2.50;;;22.90;39.10;;;;;;5009400;28;20065;-86
2021/03/29 12:23:25;;;;;;;11.65;2.63;;;22.70;39.30;;;;;;5010792;28;20069;-89
2021/03/29 12:25:52;;;;;;;8.68;2.80;;;22.60;39.50;;;;;;4992402;28;20034;-85
2021/03/29 12:28:20;;;;;;;6.63;2.10;;;22.30;39.80;;;;;;4993239;28;20108;-88
2021/03/29 12:30:46;;;;;;;;;;;22.10;40.10;;;;;;4995336;28;20052;-86
2021/03/29 12:33:12;;;;;;;10.05;2.30;;;22.50;40.10;;;;;;4995669;28;20009;-90
2021/03/29 12:35:39;;;;;;;9.65;2.60;;;22.20;40.20;;;;;;4995685;28;20662;-90
2021/03/29 12:38:05;;;;;;;9.43;2.88;;;22.00;40.30;;;;;;4994406;28;20435;-86
2021/03/29 12:40:32;;;;;;;18.00;2.92;;;22.10;40.30;;;;;;4993473;28;20046;-89
2021/03/29 12:45:29;;;;;;;9.77;3.00;;;22.20;40.60;;;;;;4995634;28;20038;-91
2021/03/29 12:48:00;;;;;;;7.60;2.72;;;22.20;40.90;;;;;;4996047;28;20105;-87
2021/03/29 12:50:27;;;;;;;8.52;2.53;;;21.90;41.10;;;;;;4993764;28;20014;-84
2021/03/29 12:52:53;;;;;;;11.37;4.07;;;21.70;41.70;;;;;;4990551;28;20038;-84
2021/03/29 12:55:21;;;;;;;9.80;3.58;;;22.00;41.60;;;;;;4991944;28;20272;-87
2021/03/29 12:57:48;;;;;;;13.80;3.03;;;22.10;41.50;;;;;;4991557;28;20133;-84
2021/03/29 13:00:19;;;;;;;13.20;3.05;;;22.10;41.40;;;;;;4992194;28;20122;-85